createdAt,value
2023-05-01T00:09:43.215Z,405.03678929765886
2023-05-01T00:17:00.735Z,414.59197324414714
2023-05-01T00:23:19.680Z,391.876254180602
2023-05-01T00:29:38.476Z,375.88963210702343
2023-05-01T00:35:58.452Z,404.9096989966555
2023-05-01T00:42:17.386Z,390.53177257525084
2023-05-01T00:52:32.714Z,381.9197324414716
2023-05-01T00:58:52.119Z,402.96321070234114
2023-05-01T01:05:10.965Z,401.8561872909699
2023-05-01T01:11:29.119Z,420.27090301003346
2023-05-01T01:21:37.858Z,405.66889632107024
2023-05-01T01:27:56.022Z,414.96321070234114
2023-05-01T01:34:14.602Z,441.38127090301003
2023-05-01T01:46:48.033Z,424.87290969899664
2023-05-01T01:53:06.651Z,433.933110367893
2023-05-01T01:59:24.771Z,425.04682274247494
2023-05-01T02:05:42.805Z,426.1471571906354
2023-05-01T02:12:00.662Z,410.7056856187291
2023-05-01T02:18:19.095Z,424.25418060200667
2023-05-01T02:24:37.267Z,416.25083612040135
2023-05-01T02:30:55.647Z,403.74581939799333
2023-05-01T02:41:38.057Z,381.60200668896323
2023-05-01T02:47:56.653Z,385.4214046822743
2023-05-01T02:54:14.851Z,379.5418060200669
2023-05-01T03:03:50.299Z,488.33779264214047
2023-05-01T03:10:08.727Z,825.5484949832776
2023-05-01T03:16:27.429Z,954.7056856187291
2023-05-01T03:22:45.834Z,877.4247491638796
2023-05-01T03:31:03.317Z,692.2374581939799
2023-05-01T03:37:21.705Z,605.3110367892976
2023-05-01T03:43:39.353Z,487.8294314381271
2023-05-01T03:49:59.009Z,468.2876254180602
2023-05-01T03:56:17.554Z,418.33110367892976
2023-05-01T04:02:35.956Z,416.4515050167224
2023-05-01T04:13:28.102Z,401.98996655518397
2023-05-01T04:19:49.135Z,399.88963210702343
2023-05-01T04:26:10.441Z,395.6521739130435
2023-05-01T04:32:31.347Z,410.9732441471572
2023-05-01T04:38:52.210Z,412.4180602006689
2023-05-01T04:45:12.987Z,419.15384615384613
2023-05-01T04:51:33.477Z,417.96655518394647
2023-05-01T04:57:54.564Z,389.53511705685617
2023-05-01T05:11:06.447Z,403.7959866220736
2023-05-01T05:17:28.778Z,418.7792642140468
2023-05-01T05:23:50.360Z,421.6421404682274
2023-05-01T05:41:27.545Z,412.6454849498328
2023-05-01T05:47:50.689Z,406.04013377926424
2023-05-01T05:54:12.811Z,426.2107023411371
2023-05-01T06:00:34.292Z,412.61872909698997
2023-05-01T06:06:57.093Z,388.6521739130435
2023-05-01T06:13:19.966Z,393.38795986622074
2023-05-01T06:19:42.391Z,414.24080267558526
2023-05-01T06:26:32.333Z,393.8829431438127
2023-05-01T06:32:53.825Z,384.7324414715719
2023-05-01T06:43:57.266Z,383.72240802675583
2023-05-01T06:50:20.371Z,356.24080267558526
2023-05-01T06:56:42.366Z,354.52842809364546
2023-05-01T07:03:05.945Z,374.7792642140468
2023-05-01T07:11:56.526Z,346.4916387959866
2023-05-01T07:18:19.058Z,354.68896321070235
2023-05-01T07:31:15.042Z,330.25752508361205
2023-05-01T07:38:44.946Z,355.0
2023-05-01T07:57:12.986Z,298.98327759197326
2023-05-01T08:07:11.222Z,296.7157190635451
2023-05-01T08:13:31.789Z,309.4515050167224
2023-05-01T08:19:51.645Z,305.1705685618729
2023-05-01T08:33:35.045Z,320.96989966555185
2023-05-01T08:39:55.575Z,309.45484949832775
2023-05-01T08:46:16.225Z,316.2006688963211
2023-05-01T08:52:36.160Z,310.82274247491637
2023-05-01T08:58:56.013Z,321.95317725752506
2023-05-01T09:05:17.030Z,326.74247491638795
2023-05-01T09:14:29.719Z,340.44147157190633
2023-05-01T09:20:49.834Z,323.73578595317724
2023-05-01T09:30:00.852Z,322.61872909698997
2023-05-01T09:44:15.156Z,315.24749163879596
2023-05-01T09:53:11.327Z,315.0133779264214
2023-05-01T12:59:22.609Z,194.8227424749164
2023-05-01T13:08:49.137Z,161.28428093645485
2023-05-01T13:15:11.229Z,175.04347826086956
2023-05-01T13:28:00.203Z,155.49498327759198
2023-05-01T13:34:34.457Z,144.68896321070235
2023-05-01T13:40:55.720Z,141.27090301003344
2023-05-01T13:47:17.300Z,145.17391304347825
2023-05-01T13:53:38.828Z,164.18729096989966
2023-05-01T14:00:01.515Z,138.0133779264214
2023-05-01T14:06:22.822Z,136.2140468227425
2023-05-01T14:12:50.965Z,132.00334448160535
2023-05-01T14:19:14.413Z,131.43478260869566
2023-05-01T14:25:36.254Z,155.34448160535118
2023-05-01T14:31:58.385Z,135.10702341137124
2023-05-01T14:38:19.400Z,152.64548494983276
2023-05-01T14:44:40.722Z,147.9665551839465
2023-05-01T14:51:02.002Z,152.35117056856188
2023-05-01T15:03:48.028Z,143.54515050167225
2023-05-01T15:10:16.784Z,171.4314381270903
2023-05-01T15:19:04.098Z,200.18729096989966
2023-05-01T15:27:05.614Z,250.98327759197323
2023-05-01T15:33:27.203Z,299.438127090301
2023-05-01T15:39:48.266Z,327.66220735785953
2023-05-01T15:46:08.336Z,319.8561872909699
2023-05-01T15:52:30.527Z,307.9464882943144
2023-05-01T15:58:52.321Z,320.89966555183946
2023-05-01T16:05:13.548Z,295.2809364548495
2023-05-01T16:15:28.928Z,262.38461538461536
2023-05-01T16:35:39.471Z,268.0066889632107
2023-05-01T16:42:00.374Z,267.55183946488296
2023-05-01T16:52:36.578Z,308.67224080267556
2023-05-01T17:03:30.111Z,304.97658862876256
2023-05-01T17:10:54.056Z,283.10702341137124
2023-05-01T17:22:59.132Z,270.066889632107
2023-05-01T17:29:19.724Z,258.81605351170566
2023-05-01T17:35:40.563Z,234.2809364548495
2023-05-01T17:47:10.338Z,237.62207357859532
2023-05-01T17:53:31.365Z,239.86622073578596
2023-05-01T17:59:53.288Z,226.19397993311037
2023-05-01T18:10:28.405Z,233.23411371237458
2023-05-01T18:25:57.861Z,189.34113712374582
2023-05-01T18:32:19.263Z,178.41137123745818
2023-05-01T18:38:41.792Z,197.09030100334448
2023-05-01T18:51:07.254Z,209.87959866220737
2023-05-01T18:57:28.944Z,201.2541806020067
2023-05-01T19:03:48.463Z,233.19732441471572
2023-05-01T19:13:11.875Z,297.39130434782606
2023-05-01T19:19:36.849Z,328.75250836120404
2023-05-01T19:26:04.270Z,249.7391304347826
2023-05-01T19:32:25.632Z,217.06354515050168
2023-05-01T19:38:48.077Z,234.8628762541806
2023-05-01T19:45:09.837Z,216.8294314381271
2023-05-01T19:57:28.426Z,704.5953177257525
2023-05-01T20:03:49.093Z,736.8461538461538
2023-05-01T20:23:45.832Z,356.25752508361205
2023-05-01T20:34:34.202Z,270.1705685618729
2023-05-01T20:40:54.577Z,283.0802675585284
2023-05-01T20:47:19.124Z,282.31772575250835
2023-05-01T20:53:39.365Z,289.7090301003345
2023-05-01T21:00:01.694Z,274.88628762541805
2023-05-01T21:07:32.283Z,275.15384615384613
2023-05-01T21:13:53.584Z,275.6454849498328
2023-05-01T21:24:26.042Z,289.2173913043478
2023-05-01T21:34:14.232Z,293.10033444816054
2023-05-01T21:40:34.799Z,301.82274247491637
2023-05-01T21:46:56.846Z,346.05016722408027
2023-05-01T21:53:17.026Z,347.0535117056856
2023-05-01T21:59:39.350Z,347.6521739130435
2023-05-01T22:09:58.456Z,361.46822742474916
2023-05-01T22:22:18.049Z,449.09698996655516
2023-05-01T22:28:37.268Z,482.2040133779264
2023-05-01T22:34:57.116Z,504.1705685618729
2023-05-01T22:42:25.343Z,532.6086956521739
2023-05-01T22:48:45.740Z,613.38127090301
2023-05-01T22:56:12.310Z,640.8795986622074
2023-05-01T23:02:33.589Z,661.7892976588629
2023-05-01T23:08:54.954Z,695.0501672240803
2023-05-01T23:15:14.619Z,693.8060200668897
2023-05-01T23:21:34.524Z,677.7558528428094
2023-05-01T23:29:28.346Z,687.2140468227425
2023-05-01T23:38:17.449Z,779.9765886287626
